createdAt,value
2022-09-07T00:00:52.128Z,1.27
2022-09-07T00:03:21.030Z,2.00
2022-09-07T00:05:51.963Z,1.57
2022-09-07T00:08:21.183Z,1.93
2022-09-07T00:10:56.392Z,1.30
2022-09-07T00:13:25.186Z,2.10
2022-09-07T00:15:53.654Z,1.43
2022-09-07T00:18:22.133Z,1.70
2022-09-07T00:21:00.489Z,2.00
2022-09-07T00:23:29.409Z,2.10
2022-09-07T00:26:00.596Z,1.60
2022-09-07T00:28:29.066Z,2.10
2022-09-07T00:30:57.577Z,2.03
2022-09-07T00:33:26.034Z,1.60
2022-09-07T00:35:54.712Z,2.43
2022-09-07T00:38:24.509Z,1.67
2022-09-07T00:40:53.304Z,1.90
2022-09-07T00:43:31.199Z,1.63
2022-09-07T00:45:59.560Z,1.80
2022-09-07T00:48:29.719Z,1.60
2022-09-07T00:51:00.126Z,1.70
2022-09-07T00:53:31.954Z,1.80
2022-09-07T00:56:01.063Z,2.00
2022-09-07T00:58:29.648Z,1.43
2022-09-07T01:00:58.047Z,2.03
2022-09-07T01:03:28.715Z,2.40
2022-09-07T01:05:59.696Z,1.60
2022-09-07T01:08:28.252Z,2.27
2022-09-07T01:10:59.813Z,1.67
2022-09-07T01:13:28.244Z,1.70
2022-09-07T01:16:00.556Z,1.80
2022-09-07T01:18:31.565Z,1.90
2022-09-07T01:21:10.281Z,2.20
2022-09-07T01:24:05.504Z,2.03
2022-09-07T01:26:52.449Z,1.97
2022-09-07T01:29:25.221Z,2.10
2022-09-07T01:31:58.793Z,1.70
2022-09-07T01:34:27.956Z,1.80
2022-09-07T01:36:59.317Z,1.63
2022-09-07T01:39:30.541Z,1.90
2022-09-07T01:42:00.436Z,1.70
2022-09-07T01:44:32.314Z,1.47
2022-09-07T01:47:03.038Z,2.10
2022-09-07T01:49:33.809Z,1.97
2022-09-07T01:52:05.568Z,2.07
2022-09-07T01:54:35.148Z,1.90
2022-09-07T01:57:04.769Z,1.73
2022-09-07T01:59:37.048Z,2.27
2022-09-07T02:02:07.469Z,1.77
2022-09-07T02:04:37.727Z,2.03
2022-09-07T02:07:08.679Z,1.80
2022-09-07T02:09:39.638Z,1.87
2022-09-07T02:12:12.646Z,2.23
2022-09-07T02:14:43.422Z,1.90
2022-09-07T02:17:14.703Z,1.97
2022-09-07T02:19:44.782Z,2.07
2022-09-07T02:22:15.432Z,1.73
2022-09-07T02:24:46.051Z,2.20
2022-09-07T02:27:16.556Z,2.83
2022-09-07T02:29:46.301Z,1.60
2022-09-07T02:32:14.710Z,2.00
2022-09-07T02:34:43.051Z,1.83
2022-09-07T02:37:12.123Z,2.23
2022-09-07T02:39:40.635Z,2.40
2022-09-07T02:42:09.040Z,2.43
2022-09-07T02:44:38.312Z,2.00
2022-09-07T02:47:13.302Z,1.80
2022-09-07T02:49:53.398Z,1.90
2022-09-07T02:52:24.867Z,2.77
2022-09-07T02:54:58.093Z,1.77
2022-09-07T02:57:28.532Z,1.93
2022-09-07T03:00:02.398Z,1.60
2022-09-07T03:02:36.894Z,2.00
2022-09-07T03:05:07.669Z,2.40
2022-09-07T03:07:43.498Z,2.13
2022-09-07T03:10:13.289Z,2.03
2022-09-07T03:12:42.495Z,1.70
2022-09-07T03:15:12.645Z,1.80
2022-09-07T03:17:42.932Z,2.17
2022-09-07T03:20:11.724Z,2.60
2022-09-07T03:22:40.092Z,2.60
2022-09-07T03:25:09.191Z,1.90
2022-09-07T03:27:37.530Z,2.10
2022-09-07T03:30:06.491Z,2.03
2022-09-07T03:32:35.486Z,1.53
2022-09-07T03:35:06.111Z,1.93
2022-09-07T03:37:35.104Z,1.57
2022-09-07T03:40:03.696Z,2.20
2022-09-07T03:42:32.198Z,1.93
2022-09-07T03:45:00.530Z,2.00
2022-09-07T03:47:28.965Z,2.03
2022-09-07T03:49:57.334Z,2.10
2022-09-07T03:52:27.118Z,3.00
2022-09-07T03:54:55.457Z,2.23
2022-09-07T03:57:23.785Z,2.10
2022-09-07T03:59:52.210Z,2.17
2022-09-07T04:02:20.630Z,1.60
2022-09-07T04:04:49.020Z,2.17
2022-09-07T04:07:17.404Z,2.00
2022-09-07T04:09:47.203Z,2.10
2022-09-07T04:12:15.556Z,1.80
2022-09-07T04:14:44.130Z,3.03
2022-09-07T04:17:12.534Z,2.10
2022-09-07T04:19:40.900Z,2.13
2022-09-07T04:22:09.225Z,2.57
2022-09-07T04:24:37.614Z,2.80
2022-09-07T04:27:07.389Z,2.90
2022-09-07T04:29:35.703Z,2.40
2022-09-07T04:32:04.437Z,2.37
2022-09-07T04:34:32.776Z,1.60
2022-09-07T04:37:01.124Z,3.00
2022-09-07T04:39:29.493Z,2.07
2022-09-07T04:41:57.843Z,2.30
2022-09-07T04:44:27.578Z,3.23
2022-09-07T04:46:55.894Z,2.00
2022-09-07T04:49:24.233Z,2.17
2022-09-07T04:51:52.578Z,2.20
2022-09-07T04:54:20.931Z,3.60
2022-09-07T04:56:49.240Z,2.23
2022-09-07T04:59:17.583Z,2.53
2022-09-07T05:01:47.325Z,2.00
2022-09-07T05:04:15.709Z,2.27
2022-09-07T05:06:44.034Z,2.23
2022-09-07T05:09:12.381Z,2.10
2022-09-07T05:11:40.718Z,2.40
2022-09-07T05:14:09.189Z,1.70
2022-09-07T05:16:37.572Z,2.40
2022-09-07T05:19:07.428Z,2.40
2022-09-07T05:21:36.326Z,2.20
2022-09-07T05:24:05.525Z,2.67
2022-09-07T05:26:35.536Z,2.20
2022-09-07T05:31:54.702Z,1.73
2022-09-07T05:36:56.000Z,1.90
2022-09-07T05:39:24.338Z,2.40
2022-09-07T05:41:52.843Z,2.40
2022-09-07T05:47:09.652Z,2.60
2022-09-07T05:49:39.365Z,1.90
2022-09-07T05:52:07.727Z,2.50
2022-09-07T05:54:36.063Z,1.87
2022-09-07T05:57:04.376Z,1.77
2022-09-07T05:59:32.785Z,2.33
2022-09-07T06:02:01.661Z,1.70
2022-09-07T06:04:30.076Z,2.33
2022-09-07T06:07:20.577Z,2.13
2022-09-07T06:12:37.015Z,2.57
2022-09-07T06:15:05.972Z,2.10
2022-09-07T06:17:34.339Z,1.63
2022-09-07T06:20:02.752Z,1.47
2022-09-07T06:22:32.488Z,1.90
2022-09-07T06:25:00.848Z,2.43
2022-09-07T06:27:29.416Z,2.27
2022-09-07T06:29:58.003Z,2.10
2022-09-07T06:35:10.560Z,1.97
2022-09-07T06:37:40.507Z,2.03
2022-09-07T06:40:10.611Z,2.10
2022-09-07T06:42:39.282Z,2.00
2022-09-07T06:45:10.050Z,1.70
2022-09-07T06:47:38.444Z,1.30
2022-09-07T06:50:07.059Z,2.07
2022-09-07T06:55:34.178Z,2.17
2022-09-07T06:58:02.604Z,2.07
2022-09-07T07:00:30.960Z,2.70
2022-09-07T07:02:59.375Z,2.67
2022-09-07T07:05:27.759Z,2.23
2022-09-07T07:07:57.477Z,2.30
2022-09-07T07:10:25.863Z,2.10
2022-09-07T07:12:57.510Z,2.00
2022-09-07T07:15:27.388Z,2.10
2022-09-07T07:17:59.127Z,2.00
2022-09-07T07:20:33.887Z,1.80
2022-09-07T07:23:03.896Z,2.00
2022-09-07T07:25:32.246Z,1.60
2022-09-07T07:30:48.924Z,1.57
2022-09-07T07:33:17.279Z,2.00
2022-09-07T07:35:45.557Z,1.90
2022-09-07T07:43:56.933Z,1.90
2022-09-07T07:46:25.960Z,2.43
2022-09-07T07:48:54.686Z,2.20
2022-09-07T07:51:23.001Z,1.93
2022-09-07T07:53:52.672Z,1.70
2022-09-07T07:56:21.073Z,2.93
2022-09-07T07:58:49.683Z,2.10
2022-09-07T08:01:19.452Z,2.30
2022-09-07T08:03:49.095Z,2.70
2022-09-07T08:06:18.127Z,2.00
2022-09-07T08:08:46.770Z,1.77
2022-09-07T08:11:17.621Z,1.93
2022-09-07T08:13:46.718Z,2.27
2022-09-07T08:16:15.293Z,3.13
2022-09-07T08:18:47.051Z,2.43
2022-09-07T08:21:17.378Z,2.13
2022-09-07T08:23:45.801Z,2.00
2022-09-07T08:26:14.128Z,1.97
2022-09-07T08:28:45.477Z,2.47
2022-09-07T08:31:14.954Z,2.67
2022-09-07T08:33:43.341Z,2.00
2022-09-07T08:36:12.767Z,2.23
2022-09-07T08:38:41.250Z,2.27
2022-09-07T08:41:22.667Z,2.23
2022-09-07T08:43:55.015Z,2.13
2022-09-07T08:46:29.243Z,2.20
2022-09-07T08:48:59.002Z,2.53
2022-09-07T08:51:33.982Z,2.17
2022-09-07T08:54:03.005Z,2.00
2022-09-07T08:56:33.895Z,2.00
2022-09-07T08:59:08.302Z,1.90
2022-09-07T09:01:39.647Z,2.20
2022-09-07T09:04:17.609Z,2.47
2022-09-07T09:06:50.358Z,2.40
2022-09-07T09:09:22.871Z,1.77
2022-09-07T09:11:53.970Z,2.20
2022-09-07T09:17:06.465Z,2.13
2022-09-07T09:19:48.603Z,2.10
2022-09-07T09:22:19.058Z,1.70
2022-09-07T09:24:48.668Z,2.43
2022-09-07T09:27:16.979Z,2.47
2022-09-07T09:29:46.585Z,1.80
2022-09-07T09:32:33.961Z,1.73
2022-09-07T09:35:03.269Z,1.73
2022-09-07T09:37:38.862Z,1.50
2022-09-07T09:40:09.262Z,1.97
2022-09-07T09:42:39.086Z,1.53
2022-09-07T09:45:16.259Z,1.87
2022-09-07T09:47:50.293Z,1.93
2022-09-07T09:53:09.815Z,2.13
2022-09-07T09:55:39.248Z,1.80
2022-09-07T10:06:22.349Z,2.07
2022-09-07T10:08:56.164Z,1.80
2022-09-07T10:14:30.800Z,2.40
2022-09-07T10:17:02.057Z,2.20
2022-09-07T10:19:35.210Z,2.10
2022-09-07T10:22:04.090Z,1.63
2022-09-07T10:24:34.955Z,1.80
2022-09-07T10:27:03.212Z,1.60
2022-09-07T10:29:36.050Z,1.63
2022-09-07T10:32:21.759Z,1.93
2022-09-07T10:34:54.171Z,1.47
2022-09-07T10:37:27.366Z,1.23
2022-09-07T10:40:01.174Z,2.13
2022-09-07T10:42:30.900Z,2.03
2022-09-07T10:45:05.071Z,1.80
2022-09-07T10:47:42.721Z,1.70
2022-09-07T10:50:22.392Z,1.50
2022-09-07T10:52:52.876Z,1.43
2022-09-07T10:55:26.285Z,1.30
2022-09-07T10:58:01.090Z,1.70
2022-09-07T11:00:31.803Z,1.80
2022-09-07T11:03:25.997Z,1.80
2022-09-07T11:06:08.308Z,1.73
2022-09-07T11:14:24.533Z,1.27
2022-09-07T11:16:54.338Z,1.47
2022-09-07T11:19:41.042Z,1.30
2022-09-07T11:22:23.143Z,1.30
2022-09-07T11:27:45.815Z,1.50
2022-09-07T11:30:19.861Z,1.03
2022-09-07T11:32:51.954Z,0.90
2022-09-07T11:35:23.687Z,1.10
2022-09-07T11:37:59.297Z,1.30
2022-09-07T11:40:30.439Z,1.33
2022-09-07T11:43:01.004Z,1.50
2022-09-07T11:45:32.380Z,1.13
2022-09-07T11:48:02.933Z,1.37
2022-09-07T11:50:33.506Z,1.07
2022-09-07T11:53:06.574Z,1.23
2022-09-07T11:55:37.641Z,1.00
2022-09-07T11:58:23.960Z,1.70
2022-09-07T12:00:56.929Z,1.40
2022-09-07T12:03:31.339Z,1.30
2022-09-07T12:06:07.704Z,1.40
2022-09-07T12:08:42.922Z,0.90
2022-09-07T12:11:22.598Z,1.07
2022-09-07T12:14:01.742Z,1.00
2022-09-07T12:16:36.628Z,0.97
2022-09-07T12:19:14.144Z,1.10
2022-09-07T12:21:43.391Z,1.83
2022-09-07T12:24:36.962Z,1.20
2022-09-07T12:27:05.827Z,1.07
2022-09-07T12:29:34.705Z,1.00
2022-09-07T12:34:53.938Z,1.20
2022-09-07T12:37:40.620Z,1.40
2022-09-07T12:40:27.668Z,0.90
2022-09-07T12:43:10.765Z,1.30
2022-09-07T12:45:50.479Z,1.17
2022-09-07T12:48:28.289Z,1.20
2022-09-07T12:50:58.893Z,1.10
2022-09-07T12:53:32.462Z,1.20
2022-09-07T12:56:21.497Z,1.13
2022-09-07T12:58:57.337Z,1.20
2022-09-07T13:01:33.419Z,1.10
2022-09-07T13:04:07.415Z,1.00
2022-09-07T13:09:32.891Z,1.20
2022-09-07T13:12:04.599Z,1.63
2022-09-07T13:14:34.793Z,1.20
2022-09-07T13:17:21.877Z,1.10
2022-09-07T13:20:08.834Z,0.90
2022-09-07T13:23:08.644Z,1.20
2022-09-07T13:25:47.783Z,1.30
2022-09-07T13:28:23.465Z,1.10
2022-09-07T13:31:00.076Z,1.03
2022-09-07T13:33:47.371Z,0.90
2022-09-07T13:36:29.303Z,1.17
2022-09-07T13:38:57.550Z,1.17
2022-09-07T13:41:27.376Z,1.00
2022-09-07T13:44:00.410Z,1.67
2022-09-07T13:46:46.368Z,1.10
2022-09-07T13:49:19.648Z,1.13
2022-09-07T13:51:51.947Z,1.00
2022-09-07T13:54:24.529Z,0.80
2022-09-07T13:56:55.849Z,0.80
2022-09-07T13:59:27.133Z,0.77
2022-09-07T14:01:56.174Z,1.00
2022-09-07T14:04:25.915Z,1.67
2022-09-07T14:07:03.685Z,1.27
2022-09-07T14:09:33.685Z,1.20
2022-09-07T14:12:02.388Z,1.10
2022-09-07T14:14:32.922Z,3.40
2022-09-07T14:17:04.416Z,1.00
2022-09-07T14:19:37.929Z,1.30
2022-09-07T14:22:08.556Z,1.10
2022-09-07T14:24:37.597Z,1.20
2022-09-07T14:27:06.205Z,1.20
2022-09-07T14:29:35.546Z,1.30
2022-09-07T14:32:05.047Z,1.47
2022-09-07T14:34:34.603Z,1.20
2022-09-07T14:37:05.660Z,1.10
2022-09-07T14:39:37.675Z,1.47
2022-09-07T14:42:07.591Z,1.53
2022-09-07T14:44:38.742Z,1.83
2022-09-07T14:47:10.611Z,1.60
2022-09-07T14:49:39.139Z,1.60
2022-09-07T14:52:07.441Z,2.70
2022-09-07T14:54:37.064Z,1.20
2022-09-07T14:57:07.148Z,1.40
2022-09-07T14:59:39.893Z,1.50
2022-09-07T15:02:28.855Z,1.30
2022-09-07T15:05:15.646Z,1.40
2022-09-07T15:07:47.160Z,1.40
2022-09-07T15:10:17.670Z,1.47
2022-09-07T15:12:45.887Z,1.17
2022-09-07T15:15:24.411Z,1.03
2022-09-07T15:17:53.022Z,1.50
2022-09-07T15:20:37.781Z,1.63
2022-09-07T15:23:07.278Z,1.50
2022-09-07T15:25:37.115Z,1.37
2022-09-07T15:28:05.743Z,1.43
2022-09-07T15:30:34.164Z,1.40
2022-09-07T15:33:02.487Z,1.40
2022-09-07T15:35:32.543Z,1.10
2022-09-07T15:38:02.363Z,1.00
2022-09-07T15:40:33.270Z,1.40
2022-09-07T15:43:13.708Z,1.53
2022-09-07T15:45:48.603Z,1.47
2022-09-07T15:48:17.526Z,1.63
2022-09-07T15:50:45.775Z,1.60
2022-09-07T15:56:03.202Z,1.20
2022-09-07T15:58:32.979Z,1.70
2022-09-07T16:03:52.449Z,1.50
2022-09-07T16:06:21.723Z,1.43
2022-09-07T16:08:51.458Z,1.87
2022-09-07T16:11:23.976Z,1.70
2022-09-07T16:14:01.744Z,1.30
2022-09-07T16:19:21.032Z,1.87
2022-09-07T16:21:49.499Z,1.50
2022-09-07T16:24:17.830Z,1.23
2022-09-07T16:26:46.038Z,1.30
2022-09-07T16:29:15.608Z,1.70
2022-09-07T16:34:32.191Z,1.43
2022-09-07T16:37:00.430Z,2.03
2022-09-07T16:39:29.344Z,2.40
2022-09-07T16:41:57.573Z,1.40
2022-09-07T16:44:27.146Z,1.43
2022-09-07T16:46:55.377Z,1.77
2022-09-07T16:49:23.792Z,1.70
2022-09-07T16:51:52.248Z,1.33
2022-09-07T16:54:21.194Z,2.10
2022-09-07T16:56:49.508Z,2.83
2022-09-07T16:59:20.185Z,1.63
2022-09-07T17:01:49.896Z,1.97
2022-09-07T17:04:18.613Z,1.23
2022-09-07T17:06:46.979Z,1.93
2022-09-07T17:09:15.880Z,2.00
2022-09-07T17:11:44.279Z,2.37
2022-09-07T17:14:13.527Z,1.73
2022-09-07T17:16:42.500Z,1.80
2022-09-07T17:19:29.732Z,1.77
2022-09-07T17:21:59.675Z,1.53
2022-09-07T17:24:27.924Z,1.97
2022-09-07T17:26:56.719Z,1.83
2022-09-07T17:29:30.646Z,1.40
2022-09-07T17:34:49.983Z,1.93
2022-09-07T17:37:18.203Z,1.57
2022-09-07T17:39:46.619Z,1.67
2022-09-07T17:42:14.811Z,1.37
2022-09-07T17:44:43.060Z,1.60
2022-09-07T17:47:11.264Z,1.87
2022-09-07T17:49:39.478Z,1.67
2022-09-07T17:52:09.146Z,1.70
2022-09-07T17:54:37.366Z,1.80
2022-09-07T17:57:05.858Z,2.80
2022-09-07T18:02:22.366Z,2.83
2022-09-07T18:04:50.657Z,2.57
2022-09-07T18:07:20.292Z,3.13
2022-09-07T18:09:48.481Z,2.80
2022-09-07T18:12:16.753Z,2.67
2022-09-07T18:14:45.551Z,3.03
2022-09-07T18:17:14.971Z,2.90
2022-09-07T18:19:43.583Z,3.20
2022-09-07T18:22:13.873Z,3.13
2022-09-07T18:24:48.121Z,2.90
2022-09-07T18:27:16.374Z,3.03
2022-09-07T18:29:44.825Z,4.17
2022-09-07T18:32:13.190Z,3.40
2022-09-07T18:34:41.697Z,3.43
2022-09-07T18:37:12.010Z,4.10
2022-09-07T18:39:40.720Z,4.17
2022-09-07T18:42:10.733Z,3.73
2022-09-07T18:47:29.510Z,3.53
2022-09-07T18:49:58.351Z,3.37
2022-09-07T18:55:16.163Z,2.73
2022-09-07T18:57:46.653Z,2.90
2022-09-07T19:00:16.121Z,3.07
2022-09-07T19:02:50.629Z,4.23
2022-09-07T19:08:08.445Z,3.30
2022-09-07T19:10:37.183Z,3.67
2022-09-07T19:13:06.884Z,3.40
2022-09-07T19:15:37.284Z,3.60
2022-09-07T19:18:06.550Z,3.50
2022-09-07T19:20:35.204Z,5.10
2022-09-07T19:23:03.494Z,3.30
2022-09-07T19:25:31.908Z,3.60
2022-09-07T19:28:00.164Z,4.07
2022-09-07T19:30:30.372Z,2.93
2022-09-07T19:33:03.356Z,4.30
2022-09-07T19:35:50.844Z,3.53
2022-09-07T19:38:19.799Z,4.30
2022-09-07T19:40:56.759Z,3.80
2022-09-07T19:43:25.075Z,2.97
2022-09-07T19:45:54.671Z,3.70
2022-09-07T19:48:22.963Z,4.20
2022-09-07T19:50:51.186Z,4.03
2022-09-07T19:53:19.420Z,4.03
2022-09-07T19:55:47.600Z,3.27
2022-09-07T19:58:15.997Z,3.40
2022-09-07T20:00:44.257Z,3.53
2022-09-07T20:03:13.846Z,3.40
2022-09-07T20:05:42.584Z,3.57
2022-09-07T20:08:10.782Z,3.87
2022-09-07T20:10:39.048Z,4.50
2022-09-07T20:13:07.289Z,4.20
2022-09-07T20:15:35.506Z,3.50
2022-09-07T20:18:03.733Z,4.80
2022-09-07T20:20:34.460Z,4.03
2022-09-07T20:23:03.004Z,4.90
2022-09-07T20:25:31.220Z,3.40
2022-09-07T20:27:59.444Z,3.20
2022-09-07T20:30:27.648Z,2.73
2022-09-07T20:32:56.215Z,3.80
2022-09-07T20:35:24.423Z,3.87
2022-09-07T20:37:53.999Z,3.33
2022-09-07T20:40:22.289Z,4.40
2022-09-07T20:42:50.568Z,3.73
2022-09-07T20:45:19.349Z,3.40
2022-09-07T20:47:47.551Z,3.53
2022-09-07T20:50:16.000Z,2.60
2022-09-07T20:52:44.246Z,2.90
2022-09-07T20:55:13.816Z,3.47
2022-09-07T20:57:42.006Z,3.60
2022-09-07T21:00:10.569Z,4.13
2022-09-07T21:02:38.790Z,3.93
2022-09-07T21:05:07.817Z,4.17
2022-09-07T21:07:36.029Z,3.30
2022-09-07T21:10:06.781Z,3.37
2022-09-07T21:12:37.049Z,3.80
2022-09-07T21:15:05.459Z,3.80
2022-09-07T21:17:33.741Z,3.63
2022-09-07T21:20:01.939Z,4.00
2022-09-07T21:22:30.188Z,4.00
2022-09-07T21:24:58.597Z,3.43
2022-09-07T21:27:26.793Z,3.60
2022-09-07T21:29:56.642Z,3.87
2022-09-07T21:32:24.946Z,4.00
2022-09-07T21:34:54.905Z,3.77
2022-09-07T21:37:23.167Z,3.57
2022-09-07T21:39:51.428Z,3.30
2022-09-07T21:42:19.631Z,3.50
2022-09-07T21:44:47.907Z,3.20
2022-09-07T21:47:17.502Z,3.67
2022-09-07T21:49:45.719Z,3.00
2022-09-07T21:52:13.990Z,3.03
2022-09-07T21:54:42.255Z,3.60
2022-09-07T21:57:10.466Z,3.30
2022-09-07T21:59:38.723Z,3.40
2022-09-07T22:02:07.136Z,2.80
2022-09-07T22:04:36.840Z,3.97
2022-09-07T22:07:05.087Z,3.50
2022-09-07T22:09:33.305Z,3.87
2022-09-07T22:12:01.539Z,4.00
2022-09-07T22:14:30.035Z,3.60
2022-09-07T22:16:58.305Z,3.57
2022-09-07T22:19:26.493Z,3.30
2022-09-07T22:21:56.132Z,3.80
2022-09-07T22:24:24.494Z,3.43
2022-09-07T22:26:53.995Z,3.47
2022-09-07T22:29:22.276Z,4.47
2022-09-07T22:31:50.555Z,3.30
2022-09-07T22:34:18.761Z,3.70
2022-09-07T22:36:47.038Z,3.33
2022-09-07T22:39:17.585Z,3.53
2022-09-07T22:41:47.102Z,3.10
2022-09-07T22:44:16.623Z,3.60
2022-09-07T22:46:45.682Z,3.23
2022-09-07T22:49:15.103Z,3.43
2022-09-07T22:51:43.510Z,3.13
2022-09-07T22:54:11.876Z,3.40
2022-09-07T22:56:41.572Z,3.40
2022-09-07T22:59:10.312Z,4.73
2022-09-07T23:01:38.863Z,3.63
2022-09-07T23:04:07.623Z,3.40
2022-09-07T23:06:36.762Z,3.00
2022-09-07T23:09:08.868Z,3.80
2022-09-07T23:11:37.410Z,3.33
2022-09-07T23:14:08.484Z,2.77
2022-09-07T23:16:37.107Z,2.83
2022-09-07T23:19:05.681Z,3.60
2022-09-07T23:21:34.048Z,3.47
2022-09-07T23:24:02.817Z,2.73
2022-09-07T23:26:32.129Z,3.37
2022-09-07T23:29:00.929Z,3.80
2022-09-07T23:31:31.279Z,4.67
2022-09-07T23:33:59.751Z,3.97
2022-09-07T23:36:28.259Z,3.80
2022-09-07T23:38:57.172Z,4.73
2022-09-07T23:41:25.816Z,4.00
2022-09-07T23:43:54.351Z,2.90
2022-09-07T23:46:22.951Z,3.37
2022-09-07T23:48:52.731Z,4.03
2022-09-07T23:51:24.245Z,3.27
2022-09-07T23:53:53.152Z,3.80
2022-09-07T23:56:21.478Z,3.60
2022-09-07T23:58:49.779Z,3.70
